createdAt,value
2019-03-30T00:00:40.989Z,123.70
2019-03-30T00:03:10.871Z,118.27
2019-03-30T00:05:43.663Z,134.80
2019-03-30T00:08:13.369Z,120.27
2019-03-30T00:10:42.762Z,133.17
2019-03-30T00:13:12.220Z,124.27
2019-03-30T00:15:43.389Z,142.40
2019-03-30T00:18:12.825Z,133.37
2019-03-30T00:20:45.432Z,136.40
2019-03-30T00:23:17.360Z,144.13
2019-03-30T00:25:47.200Z,128.20
2019-03-30T00:28:18.352Z,140.60
2019-03-30T00:30:51.660Z,136.63
2019-03-30T00:33:21.591Z,150.97
2019-03-30T00:35:53.551Z,147.37
2019-03-30T00:38:22.987Z,142.20
2019-03-30T00:40:52.518Z,159.00
2019-03-30T00:43:22.277Z,157.27
2019-03-30T00:45:52.010Z,155.83
2019-03-30T00:48:22.157Z,154.90
2019-03-30T00:50:51.580Z,147.10
2019-03-30T00:53:21.321Z,146.57
2019-03-30T00:55:52.258Z,152.13
2019-03-30T00:58:21.722Z,162.23
2019-03-30T01:00:52.050Z,148.30
2019-03-30T01:03:21.477Z,146.40
2019-03-30T01:05:52.660Z,148.80
2019-03-30T01:08:22.040Z,149.60
2019-03-30T01:10:53.481Z,150.30
2019-03-30T01:13:23.337Z,150.17
2019-03-30T01:15:53.600Z,138.97
2019-03-30T01:18:25.641Z,148.80
2019-03-30T01:20:59.339Z,134.43
2019-03-30T01:23:28.872Z,137.03
2019-03-30T01:25:59.231Z,130.70
2019-03-30T01:28:28.715Z,120.27
2019-03-30T01:30:58.195Z,123.37
2019-03-30T01:33:27.924Z,139.00
2019-03-30T01:35:57.302Z,142.03
2019-03-30T01:38:26.760Z,142.90
2019-03-30T01:40:56.220Z,138.53
2019-03-30T01:43:25.723Z,135.97
2019-03-30T01:45:57.119Z,135.70
2019-03-30T01:48:26.623Z,132.33
2019-03-30T01:50:56.059Z,131.97
2019-03-30T01:53:27.145Z,141.33
2019-03-30T01:55:57.054Z,132.80
2019-03-30T01:58:28.185Z,140.67
2019-03-30T02:01:09.415Z,139.77
2019-03-30T02:03:42.003Z,153.37
2019-03-30T02:06:13.109Z,148.23
2019-03-30T02:08:43.096Z,143.60
2019-03-30T02:11:12.632Z,138.30
2019-03-30T02:13:42.934Z,143.30
2019-03-30T02:16:12.369Z,148.13
2019-03-30T02:18:42.119Z,157.43
2019-03-30T02:21:11.987Z,153.07
2019-03-30T02:23:42.225Z,160.37
2019-03-30T02:26:11.692Z,157.70
2019-03-30T02:28:41.161Z,153.50
2019-03-30T02:31:11.262Z,154.20
2019-03-30T02:33:40.602Z,154.70
2019-03-30T02:36:10.676Z,161.73
2019-03-30T02:38:40.036Z,158.53
2019-03-30T02:41:11.599Z,156.13
2019-03-30T02:43:40.936Z,171.17
2019-03-30T02:46:10.364Z,159.20
2019-03-30T02:48:39.800Z,156.30
2019-03-30T02:51:09.237Z,145.67
2019-03-30T02:53:38.971Z,142.53
2019-03-30T02:56:09.054Z,151.80
2019-03-30T02:58:40.053Z,154.50
2019-03-30T03:01:10.732Z,142.87
2019-03-30T03:03:41.053Z,149.20
2019-03-30T03:06:10.943Z,145.17
2019-03-30T03:08:40.375Z,147.90
2019-03-30T03:11:09.868Z,127.87
2019-03-30T03:13:39.477Z,145.30
2019-03-30T03:16:08.888Z,146.33
2019-03-30T03:18:38.266Z,148.43
2019-03-30T03:21:08.730Z,142.80
2019-03-30T03:23:38.938Z,143.30
2019-03-30T03:26:08.384Z,141.07
2019-03-30T03:28:39.372Z,156.60
2019-03-30T03:31:09.846Z,142.33
2019-03-30T03:33:39.227Z,158.43
2019-03-30T03:36:09.142Z,148.23
2019-03-30T03:38:39.505Z,160.87
2019-03-30T03:41:08.927Z,165.53
2019-03-30T03:43:38.665Z,155.27
2019-03-30T03:46:08.190Z,163.43
2019-03-30T03:48:37.611Z,169.10
2019-03-30T03:51:25.073Z,149.37
2019-03-30T03:53:43.104Z,174.27
2019-03-30T03:56:12.555Z,159.10
2019-03-30T03:58:49.587Z,156.87
2019-03-30T04:01:21.566Z,164.90
2019-03-30T04:03:53.410Z,144.03
2019-03-30T04:06:24.202Z,177.43
2019-03-30T04:08:55.636Z,147.57
2019-03-30T04:11:25.926Z,158.63
2019-03-30T04:13:55.996Z,168.20
2019-03-30T04:16:25.499Z,176.03
2019-03-30T04:18:55.148Z,177.00
2019-03-30T04:21:42.438Z,160.50
2019-03-30T04:26:34.846Z,179.30
2019-03-30T04:29:07.441Z,183.93
2019-03-30T04:31:39.030Z,187.97
2019-03-30T04:34:08.691Z,185.37
2019-03-30T04:36:38.873Z,166.90
2019-03-30T04:39:08.215Z,160.00
2019-03-30T04:41:38.360Z,170.90
2019-03-30T04:44:07.710Z,172.00
2019-03-30T04:46:37.079Z,200.70
2019-03-30T04:49:07.413Z,197.63
2019-03-30T04:51:36.925Z,181.90
2019-03-30T04:54:06.361Z,181.83
2019-03-30T04:56:36.086Z,207.43
2019-03-30T04:59:05.942Z,208.03
2019-03-30T05:01:35.381Z,203.17
2019-03-30T05:04:04.833Z,207.93
2019-03-30T05:06:34.170Z,202.90
2019-03-30T05:09:04.952Z,213.23
2019-03-30T05:11:34.667Z,217.60
2019-03-30T05:14:04.113Z,209.27
2019-03-30T05:16:34.613Z,219.43
2019-03-30T05:19:03.979Z,207.00
2019-03-30T05:21:33.740Z,197.37
2019-03-30T05:24:03.549Z,206.30
2019-03-30T05:26:32.993Z,200.23
2019-03-30T05:29:02.482Z,199.03
2019-03-30T05:31:33.118Z,178.47
2019-03-30T05:34:04.974Z,202.80
2019-03-30T05:36:34.760Z,200.73
2019-03-30T05:39:04.944Z,217.73
2019-03-30T05:41:34.954Z,196.27
2019-03-30T05:44:04.375Z,203.43
2019-03-30T05:46:34.189Z,193.67
2019-03-30T05:49:03.623Z,202.00
2019-03-30T05:51:34.836Z,188.97
2019-03-30T05:54:04.871Z,183.60
2019-03-30T05:56:34.542Z,183.03
2019-03-30T05:59:11.443Z,158.10
2019-03-30T06:01:40.870Z,175.07
2019-03-30T06:04:10.411Z,166.90
2019-03-30T06:06:39.955Z,160.97
2019-03-30T06:09:10.280Z,151.03
2019-03-30T06:11:41.081Z,142.00
2019-03-30T06:14:12.083Z,137.60
2019-03-30T06:16:42.182Z,121.80
2019-03-30T06:19:13.497Z,113.60
2019-03-30T06:21:43.706Z,117.63
2019-03-30T06:24:14.786Z,103.67
2019-03-30T06:26:44.968Z,104.33
2019-03-30T06:29:15.442Z,94.80
2019-03-30T06:31:46.852Z,87.50
2019-03-30T06:34:16.680Z,76.57
2019-03-30T06:36:48.215Z,65.57
2019-03-30T06:39:17.701Z,60.43
2019-03-30T06:44:23.079Z,49.27
2019-03-30T06:46:52.525Z,47.97
2019-03-30T06:49:21.972Z,46.13
2019-03-30T06:51:51.466Z,44.57
2019-03-30T06:54:22.143Z,42.57
2019-03-30T06:56:51.968Z,43.70
2019-03-30T06:59:21.830Z,37.27
2019-03-30T07:01:51.751Z,34.73
2019-03-30T07:04:23.402Z,34.83
2019-03-30T07:06:54.486Z,33.73
2019-03-30T07:09:24.544Z,35.40
2019-03-30T07:11:56.288Z,36.70
2019-03-30T07:14:28.240Z,35.33
2019-03-30T07:17:01.714Z,31.73
2019-03-30T07:19:32.610Z,32.23
2019-03-30T07:22:03.286Z,32.50
2019-03-30T07:24:32.814Z,30.10
2019-03-30T07:27:02.602Z,31.33
2019-03-30T07:29:32.984Z,32.40
2019-03-30T07:32:03.205Z,33.77
2019-03-30T07:34:35.096Z,32.80
2019-03-30T07:37:04.635Z,33.63
2019-03-30T07:39:34.642Z,31.33
2019-03-30T07:42:04.288Z,29.90
2019-03-30T07:44:36.534Z,32.70
2019-03-30T07:47:07.578Z,32.43
2019-03-30T07:49:37.028Z,31.20
2019-03-30T07:54:41.743Z,30.93
2019-03-30T07:57:17.301Z,28.73
2019-03-30T07:59:44.807Z,28.20
2019-03-30T08:02:14.329Z,27.00
2019-03-30T08:04:44.088Z,26.87
2019-03-30T08:07:13.915Z,26.10
2019-03-30T08:09:43.757Z,26.97
2019-03-30T08:12:13.638Z,28.03
2019-03-30T08:14:45.339Z,27.90
2019-03-30T08:17:15.622Z,31.13
2019-03-30T08:19:45.063Z,24.57
2019-03-30T08:22:15.166Z,26.85
2019-03-30T08:24:44.637Z,28.40
2019-03-30T08:27:15.001Z,28.60
2019-03-30T08:29:44.470Z,27.00
2019-03-30T08:32:13.955Z,30.73
2019-03-30T08:34:43.681Z,26.77
2019-03-30T08:37:14.678Z,27.47
2019-03-30T08:39:44.187Z,27.87
2019-03-30T08:42:14.113Z,28.03
2019-03-30T08:44:47.678Z,29.92
2019-03-30T08:47:18.245Z,27.95
2019-03-30T08:49:47.701Z,26.70
2019-03-30T08:52:17.461Z,28.70
2019-03-30T08:54:47.713Z,29.32
2019-03-30T08:57:18.297Z,30.57
2019-03-30T08:59:52.076Z,31.75
2019-03-30T09:02:22.454Z,30.45
2019-03-30T09:04:51.975Z,32.93
2019-03-30T09:07:23.027Z,31.97
2019-03-30T09:10:03.398Z,34.43
2019-03-30T09:12:36.489Z,32.85
2019-03-30T09:15:06.763Z,35.38
2019-03-30T09:17:37.464Z,32.13
2019-03-30T09:20:08.075Z,34.10
2019-03-30T09:22:38.741Z,33.65
2019-03-30T09:25:10.950Z,36.17
2019-03-30T09:27:40.610Z,36.70
2019-03-30T09:30:12.374Z,36.70
2019-03-30T09:32:45.133Z,35.80
2019-03-30T09:35:15.180Z,34.48
2019-03-30T09:37:45.787Z,34.78
2019-03-30T09:40:15.870Z,35.63
2019-03-30T09:42:45.278Z,35.30
2019-03-30T09:45:14.716Z,38.23
2019-03-30T09:47:45.625Z,36.90
2019-03-30T09:50:17.481Z,34.83
2019-03-30T09:52:48.135Z,35.17
2019-03-30T09:55:18.306Z,35.65
2019-03-30T09:57:47.763Z,35.30
2019-03-30T10:00:17.873Z,38.42
2019-03-30T10:02:47.337Z,42.40
2019-03-30T10:05:16.884Z,35.92
2019-03-30T10:07:46.294Z,35.30
2019-03-30T10:10:15.751Z,39.27
2019-03-30T10:12:45.628Z,39.20
2019-03-30T10:15:15.629Z,36.98
2019-03-30T10:17:45.112Z,36.65
2019-03-30T10:20:18.120Z,41.83
2019-03-30T10:22:47.515Z,35.30
2019-03-30T10:25:17.598Z,35.58
2019-03-30T10:27:47.156Z,39.40
2019-03-30T10:30:17.040Z,36.85
2019-03-30T10:32:47.261Z,36.93
2019-03-30T10:35:19.559Z,37.05
2019-03-30T10:37:49.999Z,35.65
2019-03-30T10:40:21.173Z,35.98
2019-03-30T10:42:52.176Z,36.28
2019-03-30T10:45:22.350Z,36.95
2019-03-30T10:47:52.727Z,35.92
2019-03-30T10:50:26.049Z,34.75
2019-03-30T10:52:56.121Z,38.30
2019-03-30T10:55:26.682Z,40.03
2019-03-30T10:57:58.797Z,42.88
2019-03-30T11:00:39.281Z,37.25
2019-03-30T11:03:09.444Z,45.50
2019-03-30T11:05:39.587Z,41.68
2019-03-30T11:08:09.578Z,41.45
2019-03-30T11:10:39.601Z,41.25
2019-03-30T11:13:09.714Z,38.42
2019-03-30T11:15:40.007Z,43.02
2019-03-30T11:18:10.980Z,38.40
2019-03-30T11:20:41.004Z,43.33
2019-03-30T11:23:14.223Z,39.55
2019-03-30T11:25:44.539Z,45.30
2019-03-30T11:28:17.590Z,40.40
2019-03-30T11:30:47.697Z,38.73
2019-03-30T11:33:18.009Z,41.88
2019-03-30T11:35:48.305Z,42.35
2019-03-30T11:38:20.354Z,53.30
2019-03-30T11:40:53.689Z,58.52
2019-03-30T11:43:24.555Z,58.45
2019-03-30T11:45:56.391Z,54.73
2019-03-30T11:48:26.334Z,53.20
2019-03-30T11:50:56.355Z,58.95
2019-03-30T11:53:26.441Z,56.20
2019-03-30T11:55:58.299Z,56.23
2019-03-30T11:58:31.905Z,60.08
2019-03-30T12:01:02.092Z,62.20
2019-03-30T12:03:35.854Z,60.00
2019-03-30T12:06:05.875Z,61.25
2019-03-30T12:08:36.590Z,63.45
2019-03-30T12:11:07.536Z,61.20
2019-03-30T12:13:37.541Z,60.63
2019-03-30T12:16:07.946Z,65.00
2019-03-30T12:18:38.368Z,64.10
2019-03-30T12:21:09.164Z,62.30
2019-03-30T12:23:42.503Z,66.70
2019-03-30T12:26:11.156Z,66.92
2019-03-30T12:28:41.222Z,69.77
2019-03-30T12:31:11.252Z,68.55
2019-03-30T12:33:42.365Z,67.53
2019-03-30T12:36:12.640Z,66.02
2019-03-30T12:38:44.250Z,68.92
2019-03-30T12:41:14.660Z,72.10
2019-03-30T12:43:44.695Z,69.07
2019-03-30T12:46:18.839Z,69.85
2019-03-30T12:48:48.946Z,63.52
2019-03-30T12:51:19.899Z,67.67
2019-03-30T12:53:52.377Z,60.63
2019-03-30T12:56:23.419Z,62.53
2019-03-30T12:58:53.926Z,67.27
2019-03-30T13:01:23.935Z,64.58
2019-03-30T13:03:54.086Z,61.08
2019-03-30T13:06:28.055Z,62.30
2019-03-30T13:08:58.453Z,64.25
2019-03-30T13:11:28.439Z,61.70
2019-03-30T13:13:58.463Z,62.20
2019-03-30T13:16:30.321Z,66.77
2019-03-30T13:19:01.267Z,60.95
2019-03-30T13:21:32.455Z,55.85
2019-03-30T13:24:03.126Z,68.10
2019-03-30T13:26:33.423Z,61.13
2019-03-30T13:29:05.400Z,61.33
2019-03-30T13:31:35.470Z,62.20
2019-03-30T13:34:06.015Z,64.35
2019-03-30T13:36:43.400Z,59.35
2019-03-30T13:39:13.937Z,56.30
2019-03-30T13:41:44.302Z,57.58
2019-03-30T13:44:14.447Z,53.80
2019-03-30T13:46:45.097Z,63.10
2019-03-30T13:49:49.034Z,58.70
2019-03-30T13:52:20.109Z,65.20
2019-03-30T13:54:53.947Z,66.62
2019-03-30T13:57:25.233Z,69.58
2019-03-30T13:59:56.036Z,64.17
2019-03-30T14:02:26.111Z,59.58
2019-03-30T14:04:57.471Z,65.52
2019-03-30T14:07:28.728Z,67.55
2019-03-30T14:09:59.009Z,63.08
2019-03-30T14:12:32.263Z,67.22
2019-03-30T14:15:02.567Z,67.37
2019-03-30T14:17:33.502Z,66.87
2019-03-30T14:20:05.725Z,65.35
2019-03-30T14:22:35.817Z,64.95
2019-03-30T14:25:06.749Z,65.60
2019-03-30T14:27:37.751Z,64.97
2019-03-30T14:30:09.278Z,65.60
2019-03-30T14:32:39.756Z,65.83
2019-03-30T14:35:11.054Z,65.37
2019-03-30T14:37:41.130Z,67.92
2019-03-30T14:40:11.227Z,64.60
2019-03-30T14:42:44.392Z,63.58
2019-03-30T14:45:18.510Z,67.17
2019-03-30T14:47:48.707Z,70.28
2019-03-30T14:50:19.258Z,62.65
2019-03-30T14:52:49.577Z,64.65
2019-03-30T14:55:19.988Z,67.03
2019-03-30T14:57:50.453Z,63.17
2019-03-30T15:00:21.156Z,65.90
2019-03-30T15:02:51.837Z,62.45
2019-03-30T15:05:22.218Z,64.47
2019-03-30T15:07:52.176Z,59.90
2019-03-30T15:10:27.214Z,60.03
2019-03-30T15:12:57.293Z,59.30
2019-03-30T15:15:27.397Z,61.02
2019-03-30T15:17:57.569Z,60.88
2019-03-30T15:20:27.638Z,55.25
2019-03-30T15:22:58.306Z,61.70
2019-03-30T15:25:28.659Z,61.77
2019-03-30T15:27:59.465Z,50.95
2019-03-30T15:30:29.551Z,50.12
2019-03-30T15:33:03.244Z,60.40
